Skip Navigation LinksHome page > Weather > Current weather Skip Navigation Links

Current Weather

Chicago O'Hare Intl, Chicago

For information only: do not use for flight planning or navigation.
Latest weather
Observation time Wednesday, October 22, 2014 3:51 PM CDT
Local time Wednesday, October 22, 2014 4:38 PM CDT
Flight conditions Visual Meteorological Conditions
Winds
Wind direction East (100°)
Wind speed 8 mph
Visibility 10 mi.
Sky condition
Ceiling unlimited
Sky clear
Temperature 54°F
Dewpoint 38°F
Altimeter 30.29 in.Hg
Pressure change last 3 hours0.04 in.Hg
Pressure falling more slowly
Derived measurements
Relative humidity 55%
Density altitude 29 ft.
Sea-level pressure 30.30 in.Hg
Remarks
Automated weather observing station with precipitation discriminator.
METAR KORD 222051Z 10007KT 10SM CLR 12/03 A3029 RMK AO2 SLP260 T01220033 56015

Settings

Location code

InnerDrive.Weather 4.0.5399.0 Release CLR 4.0.30319.34014
Copyright ©2014 Inner Drive Technology. All rights reserved. Portions Copyright ©1986-2014 David Braverman.

Find weather

Site navigation


Skip Navigation Links

Place info

Page info

PayPal - The safer, easier way to pay online!

Return home.

Copyright ©2014 Inner Drive Technology. Purveyors of fine, hand-crafted computer software. Page printed 2014-10-22T21:38:56 UTC.